Time;durP1;ratioP1;P1;durP2;ratioP2;P2;SDS_P1;SDS_P2;PMS_P1;PMS_P2;Temp;Humidity;BMP_temperature;BMP_pressure;BME280_temperature;BME280_humidity;BME280_pressure;Samples;Min_cycle;Max_cycle;Signal;HPM_P1;HPM_P2
2022/07/27 00:01:09;;;;;;;2.13;0.50;;;;;;;15.26;82.84;102075.13;5077978;28;20058;-36
2022/07/27 00:03:37;;;;;;;2.13;0.50;;;;;;;15.27;82.96;102075.97;5077709;28;20067;-36
2022/07/27 00:06:05;;;;;;;2.03;0.65;;;;;;;15.27;83.05;102071.19;5076410;28;20058;-31
2022/07/27 00:08:34;;;;;;;3.83;0.60;;;;;;;15.29;83.15;102077.34;5078032;28;20560;-32
2022/07/27 00:11:03;;;;;;;3.05;0.50;;;;;;;15.32;83.52;102070.28;5077751;28;20395;-32
2022/07/27 00:13:31;;;;;;;3.03;0.50;;;;;;;15.33;83.49;102072.81;5077212;28;20534;-30
2022/07/27 00:15:59;;;;;;;4.00;0.68;;;;;;;15.35;83.59;102070.53;5077736;28;20048;-34
2022/07/27 00:18:27;;;;;;;3.50;0.60;;;;;;;15.38;83.79;102067.13;5077724;28;20110;-37
2022/07/27 00:20:55;;;;;;;5.82;0.77;;;;;;;15.40;83.82;102062.00;5077244;28;20083;-33
2022/07/27 00:23:23;;;;;;;3.88;0.95;;;;;;;15.44;83.95;102063.06;5076786;28;20417;-35
2022/07/27 00:25:51;;;;;;;4.05;0.60;;;;;;;15.47;84.39;102067.25;5077756;28;20482;-39
2022/07/27 00:28:20;;;;;;;4.50;0.80;;;;;;;15.49;84.75;102063.00;5077248;28;20076;-30
2022/07/27 00:30:48;;;;;;;2.60;1.20;;;;;;;15.51;85.30;102069.19;5077588;28;20175;-31
2022/07/27 00:33:16;;;;;;;2.92;0.70;;;;;;;15.56;85.97;102065.50;5077310;28;20090;-30
2022/07/27 00:35:44;;;;;;;3.55;0.80;;;;;;;15.60;86.45;102062.88;5077762;28;20059;-35
2022/07/27 00:38:12;;;;;;;6.35;0.90;;;;;;;15.62;86.71;102063.41;5066883;28;20405;-40
2022/07/27 00:40:40;;;;;;;4.82;0.80;;;;;;;15.63;86.86;102065.09;5076888;28;20066;-36
2022/07/27 00:43:07;;;;;;;5.38;0.90;;;;;;;15.64;86.48;102049.88;5077825;28;20147;-30
2022/07/27 00:45:37;;;;;;;2.45;0.65;;;;;;;15.64;85.87;102061.97;5077275;28;20049;-30
2022/07/27 00:48:05;;;;;;;3.65;0.43;;;;;;;15.65;85.52;102060.00;5077060;28;20044;-31
2022/07/27 00:50:33;;;;;;;4.00;0.75;;;;;;;15.64;85.05;102061.97;5078043;28;20056;-31
2022/07/27 00:53:03;;;;;;;4.22;0.73;;;;;;;15.64;84.82;102061.97;5077328;28;20032;-31
2022/07/27 00:55:32;;;;;;;5.50;1.20;;;;;;;15.65;84.56;102060.84;5076905;28;20412;-30
2022/07/27 00:58:00;;;;;;;4.57;0.60;;;;;;;15.64;84.10;102064.78;5077320;28;20118;-37
2022/07/27 01:00:28;;;;;;;4.88;0.80;;;;;;;15.64;83.74;102061.97;5077893;28;20418;-30
2022/07/27 01:02:57;;;;;;;4.78;0.80;;;;;;;15.64;83.29;102061.97;5076820;28;20693;-30
2022/07/27 01:05:29;;;;;;;2.80;0.68;;;;;;;15.62;83.36;102064.25;5057383;28;20083;-32
2022/07/27 01:08:11;;;;;;;3.53;0.70;;;;;;;15.60;83.02;102068.50;5070418;28;20063;-33
2022/07/27 01:10:39;;;;;;;2.40;0.85;;;;;;;15.58;82.82;102065.19;5053533;28;20053;-30
2022/07/27 01:13:08;;;;;;;4.05;0.68;;;;;;;15.54;82.52;102062.09;5069209;28;20076;-30
2022/07/27 01:15:40;;;;;;;4.13;0.60;;;;;;;15.52;82.51;102058.75;5073337;28;20052;-30
2022/07/27 01:18:12;;;;;;;2.47;0.60;;;;;;;15.47;82.29;102062.47;5073920;28;20131;-34
2022/07/27 01:20:41;;;;;;;3.50;0.90;;;;;;;15.43;82.02;102061.41;5074107;28;20557;-34
2022/07/27 01:23:10;;;;;;;3.88;0.60;;;;;;;15.39;81.79;102062.31;5072995;28;20045;-33
2022/07/27 01:25:41;;;;;;;2.40;0.50;;;;;;;15.35;81.48;102058.44;5074274;28;20131;-30
2022/07/27 01:28:09;;;;;;;3.35;0.65;;;;;;;15.31;81.12;102061.00;5073884;28;20124;-33
2022/07/27 01:30:36;;;;;;;3.22;0.75;;;;;;;15.27;81.12;102056.28;5073469;28;20079;-31
2022/07/27 01:33:06;;;;;;;3.97;0.68;;;;;;;15.23;81.21;102056.06;5073790;28;20513;-30
2022/07/27 01:35:35;;;;;;;4.10;0.75;;;;;;;15.19;81.50;102060.59;5073786;28;20044;-32
2022/07/27 01:38:03;;;;;;;3.42;0.73;;;;;;;15.17;82.04;102051.66;5073037;28;20048;-35
2022/07/27 01:40:32;;;;;;;5.13;1.35;;;;;;;15.18;82.27;102055.31;5073902;28;20079;-32
2022/07/27 01:43:00;;;;;;;4.25;0.70;;;;;;;15.15;82.16;102048.31;5073521;28;20136;-32
2022/07/27 01:45:28;;;;;;;2.28;0.50;;;;;;;15.13;82.21;102050.56;5061881;28;20044;-34
2022/07/27 01:47:56;;;;;;;2.47;0.60;;;;;;;15.11;81.82;102055.66;5073216;28;20048;-33
2022/07/27 01:50:24;;;;;;;3.50;0.65;;;;;;;15.10;81.57;102049.19;5073942;28;20063;-35
2022/07/27 01:52:52;;;;;;;6.53;1.02;;;;;;;15.08;81.47;102048.66;5072531;28;20572;-31
2022/07/27 01:55:19;;;;;;;4.35;0.68;;;;;;;15.08;81.22;102047.81;5073295;28;20045;-31
2022/07/27 01:57:49;;;;;;;3.20;0.60;;;;;;;15.09;81.11;102046.69;5072893;28;20044;-32
2022/07/27 02:00:17;;;;;;;3.45;0.70;;;;;;;15.08;81.45;102048.66;5073032;28;20417;-32
2022/07/27 02:02:44;;;;;;;2.92;0.73;;;;;;;15.08;81.56;102045.00;5073345;28;20512;-32
2022/07/27 02:05:12;;;;;;;3.03;0.65;;;;;;;15.10;81.63;102051.19;5072745;28;20055;-37
2022/07/27 02:07:41;;;;;;;3.58;0.77;;;;;;;15.10;82.23;102051.19;5073345;28;20098;-32
2022/07/27 02:10:10;;;;;;;3.72;0.70;;;;;;;15.09;82.49;102043.88;5073050;28;20049;-35
2022/07/27 02:12:36;;;;;;;1.80;0.57;;;;;;;15.09;82.50;102047.53;5072426;28;20044;-35
2022/07/27 02:15:09;;;;;;;4.28;0.75;;;;;;;15.11;82.59;102047.22;5072761;28;20045;-32
2022/07/27 02:17:43;;;;;;;4.10;0.90;;;;;;;15.12;82.71;102051.72;5072450;28;20482;-37
2022/07/27 02:20:13;;;;;;;5.03;0.70;;;;;;;15.12;82.62;102051.72;5072053;28;20102;-35
2022/07/27 02:22:41;;;;;;;2.40;0.80;;;;;;;15.11;82.50;102047.22;5073035;28;20487;-34
2022/07/27 02:25:11;;;;;;;3.72;0.70;;;;;;;15.11;82.37;102044.41;5072880;28;20045;-32
2022/07/27 02:27:41;;;;;;;3.13;0.60;;;;;;;15.10;82.04;102039.94;5072044;28;20076;-33
2022/07/27 02:30:12;;;;;;;4.50;1.13;;;;;;;15.07;81.90;102047.00;5072520;28;20051;-32
2022/07/27 02:32:42;;;;;;;1.98;0.60;;;;;;;15.04;81.71;102041.13;5072918;28;20063;-30
2022/07/27 02:35:11;;;;;;;3.28;0.75;;;;;;;15.02;81.57;102041.41;5072343;28;20045;-31
2022/07/27 02:37:46;;;;;;;3.08;0.60;;;;;;;14.98;81.58;102037.56;5072670;28;20052;-30
2022/07/27 02:40:15;;;;;;;3.47;0.60;;;;;;;14.96;81.37;102042.63;5071640;28;20044;-36
2022/07/27 02:42:44;;;;;;;6.57;0.80;;;;;;;14.94;81.56;102042.09;5072512;28;20458;-35
2022/07/27 02:45:14;;;;;;;3.92;0.85;;;;;;;14.93;81.77;102042.41;5072291;28;20044;-32
2022/07/27 02:47:42;;;;;;;2.45;0.50;;;;;;;14.92;81.88;102049.16;5071822;28;20118;-37
2022/07/27 02:50:10;;;;;;;2.38;0.60;;;;;;;14.88;82.18;102036.84;5072023;28;20088;-33
2022/07/27 02:52:38;;;;;;;3.50;0.88;;;;;;;14.85;82.15;102043.06;5072098;28;20149;-31
2022/07/27 02:55:07;;;;;;;2.95;0.70;;;;;;;14.83;82.64;102046.16;5071639;28;20056;-35
2022/07/27 02:57:39;;;;;;;2.88;0.43;;;;;;;14.81;82.75;102046.44;5072303;28;20063;-29
2022/07/27 03:00:10;;;;;;;3.40;0.70;;;;;;;14.79;82.74;102040.28;5072481;28;20504;-33
2022/07/27 03:02:40;;;;;;;3.42;0.70;;;;;;;14.77;82.36;102036.13;5068242;28;20048;-32
2022/07/27 03:05:10;;;;;;;2.70;0.60;;;;;;;14.74;82.26;102040.38;5071936;28;20165;-29
2022/07/27 03:07:38;;;;;;;3.00;0.60;;;;;;;14.71;81.98;102049.41;5071096;28;20052;-31
2022/07/27 03:10:07;;;;;;;5.22;1.23;;;;;;;14.69;81.78;102040.41;5071482;28;20040;-34
2022/07/27 03:12:35;;;;;;;3.78;0.70;;;;;;;14.67;81.29;102033.41;5071804;28;20474;-32
2022/07/27 03:15:03;;;;;;;3.20;0.63;;;;;;;14.64;81.51;102040.47;5071257;28;20049;-37
2022/07/27 03:17:31;;;;;;;3.67;0.93;;;;;;;14.65;81.71;102038.50;5071605;28;20044;-39
2022/07/27 03:20:00;;;;;;;2.75;0.68;;;;;;;14.65;82.43;102044.13;5071867;28;20044;-34
2022/07/27 03:22:31;;;;;;;6.38;0.60;;;;;;;14.63;82.25;102041.59;5071043;28;20050;-31
2022/07/27 03:24:59;;;;;;;3.45;0.68;;;;;;;14.62;82.64;102042.75;5072163;28;20048;-39
2022/07/27 03:27:27;;;;;;;4.55;0.65;;;;;;;14.60;82.41;102033.78;5071575;28;20117;-32
2022/07/27 03:29:56;;;;;;;2.35;0.70;;;;;;;14.57;82.11;102031.56;5070438;28;20119;-31
2022/07/27 03:32:24;;;;;;;3.05;0.65;;;;;;;14.54;82.34;102034.13;5071935;28;20100;-30
2022/07/27 03:34:51;;;;;;;4.80;0.60;;;;;;;14.52;82.75;102044.84;5071099;28;20055;-35
2022/07/27 03:37:20;;;;;;;3.47;0.80;;;;;;;14.52;82.93;102042.88;5069021;28;20048;-38
2022/07/27 03:39:48;;;;;;;5.15;0.75;;;;;;;14.51;83.07;102044.00;5069541;28;20054;-34
2022/07/27 03:42:16;;;;;;;2.80;0.60;;;;;;;14.49;83.22;102049.06;5069239;28;20119;-34
2022/07/27 03:44:44;;;;;;;3.22;0.50;;;;;;;14.46;83.11;102046.84;5068563;28;20506;-38
2022/07/27 03:47:12;;;;;;;2.25;0.60;;;;;;;14.43;82.81;102050.25;5069514;28;20047;-37
2022/07/27 03:49:39;;;;;;;2.47;0.50;;;;;;;14.40;82.58;102046.06;5059311;28;20052;-30
2022/07/27 03:52:07;;;;;;;4.88;0.80;;;;;;;14.38;82.25;102051.13;5069307;28;20128;-33
2022/07/27 03:54:39;;;;;;;4.57;0.80;;;;;;;14.36;82.63;102055.34;5071116;28;20072;-41
2022/07/27 03:57:07;;;;;;;4.97;0.80;;;;;;;14.34;83.14;102049.19;5069387;28;20412;-34
2022/07/27 03:59:35;;;;;;;3.38;0.60;;;;;;;14.34;83.64;102054.81;5070644;28;20489;-35
2022/07/27 04:02:03;;;;;;;4.30;0.63;;;;;;;14.34;83.82;102060.44;5070218;28;20580;-34
2022/07/27 04:04:32;;;;;;;4.80;0.60;;;;;;;14.32;84.16;102051.47;5069474;28;20055;-33
2022/07/27 04:07:00;;;;;;;5.20;0.80;;;;;;;14.30;84.28;102056.53;5071276;28;20467;-34
2022/07/27 04:09:28;;;;;;;2.72;0.77;;;;;;;14.27;84.08;102054.31;5071162;28;20378;-32
2022/07/27 04:11:59;;;;;;;3.25;0.77;;;;;;;14.24;83.42;102058.53;5070575;28;20405;-32
2022/07/27 04:14:27;;;;;;;4.45;0.88;;;;;;;14.22;83.00;102052.38;5070795;28;20521;-29
2022/07/27 04:16:55;;;;;;;4.65;0.60;;;;;;;14.20;82.73;102065.88;5071304;28;20044;-32
2022/07/27 04:19:23;;;;;;;4.28;0.70;;;;;;;14.20;82.44;102059.41;5070425;28;20040;-35
2022/07/27 04:21:50;;;;;;;2.90;0.60;;;;;;;14.18;82.35;102062.53;5070901;28;20045;-34
2022/07/27 04:24:18;;;;;;;2.95;0.60;;;;;;;14.18;82.50;102050.47;5070291;28;20051;-32
2022/07/27 04:26:46;;;;;;;3.35;0.60;;;;;;;14.18;82.10;102070.13;5069530;28;20045;-30
2022/07/27 04:29:15;;;;;;;3.83;0.50;;;;;;;14.17;81.69;102066.47;5071011;28;20051;-32
2022/07/27 04:31:47;;;;;;;2.20;0.43;;;;;;;14.16;81.96;102064.81;5071131;28;20120;-33
2022/07/27 04:34:15;;;;;;;4.57;0.77;;;;;;;14.17;81.85;102068.44;5070327;28;20040;-35
2022/07/27 04:36:43;;;;;;;3.22;0.45;;;;;;;14.19;81.69;102063.38;5070963;28;20049;-29
2022/07/27 04:39:11;;;;;;;1.67;0.47;;;;;;;14.19;81.93;102064.19;5071021;28;20108;-33
2022/07/27 04:41:39;;;;;;;3.97;0.75;;;;;;;14.20;81.94;102063.06;5071581;28;20063;-34
2022/07/27 04:44:07;;;;;;;3.05;0.43;;;;;;;14.21;82.00;102063.91;5074666;28;20051;-29
2022/07/27 04:46:36;;;;;;;2.03;0.50;;;;;;;14.24;82.49;102066.13;5074268;28;20063;-35
2022/07/27 04:49:05;;;;;;;2.42;0.57;;;;;;;14.22;82.43;102063.59;5074473;28;20211;-36
2022/07/27 04:51:34;;;;;;;1.83;0.60;;;;;;;14.23;82.76;102062.47;5073639;28;20060;-33
2022/07/27 04:54:02;;;;;;;2.25;0.40;;;;;;;14.22;82.71;102066.41;5073711;28;20071;-35
2022/07/27 04:56:30;;;;;;;2.25;0.57;;;;;;;14.21;82.89;102073.16;5074481;28;20141;-33
2022/07/27 04:58:57;;;;;;;3.13;0.60;;;;;;;14.21;83.06;102063.91;5074673;28;20055;-34
2022/07/27 05:01:25;;;;;;;1.73;0.43;;;;;;;14.21;83.33;102072.31;5072573;28;20052;-36
2022/07/27 05:04:02;;;;;;;2.05;0.50;;;;;;;14.21;83.38;102077.94;5074356;28;20508;-32
2022/07/27 05:06:31;;;;;;;3.78;0.68;;;;;;;14.21;83.68;102075.13;5074167;28;20076;-30
2022/07/27 05:08:59;;;;;;;1.20;0.38;;;;;;;14.22;83.72;102076.81;5073672;28;20417;-32
2022/07/27 05:11:27;;;;;;;1.33;0.40;;;;;;;14.23;83.89;102079.31;5074066;28;20049;-33
2022/07/27 05:13:55;;;;;;;2.38;0.50;;;;;;;14.25;83.81;102084.66;5074371;28;20054;-31
2022/07/27 05:16:22;;;;;;;5.57;0.80;;;;;;;14.26;84.00;102081.53;5073129;28;20080;-32
2022/07/27 05:18:55;;;;;;;4.10;0.85;;;;;;;14.29;84.41;102075.34;5054203;28;20049;-32
2022/07/27 05:21:24;;;;;;;2.40;0.50;;;;;;;14.34;84.70;102085.69;5068732;28;20040;-34
2022/07/27 05:23:52;;;;;;;2.88;0.60;;;;;;;14.37;84.88;102079.50;5073195;28;20140;-34
2022/07/27 05:26:21;;;;;;;2.50;0.60;;;;;;;14.40;85.29;102079.75;5074115;28;20048;-31
2022/07/27 05:28:49;;;;;;;2.47;0.52;;;;;;;14.45;85.46;102084.50;5072989;28;20072;-32
2022/07/27 05:31:18;;;;;;;6.35;0.93;;;;;;;14.48;85.51;102084.75;5073767;28;20512;-36
2022/07/27 05:33:46;;;;;;;2.95;0.90;;;;;;;14.54;85.14;102085.53;5074023;28;20063;-34
2022/07/27 05:36:17;;;;;;;4.10;0.90;;;;;;;14.62;84.75;102084.88;5073163;28;20059;-37
2022/07/27 05:38:46;;;;;;;3.85;0.73;;;;;;;14.72;84.70;102093.22;5073754;28;20593;-36
2022/07/27 05:41:14;;;;;;;4.65;0.70;;;;;;;14.79;84.12;102088.06;5073529;28;20519;-31
2022/07/27 05:43:41;;;;;;;3.83;0.63;;;;;;;14.88;84.17;102096.69;5072970;28;20493;-33
2022/07/27 05:46:09;;;;;;;7.75;1.08;;;;;;;14.96;84.10;102096.06;5073734;28;20055;-32
2022/07/27 05:48:37;;;;;;;3.20;0.68;;;;;;;15.03;83.88;102101.28;5073466;28;20067;-35
2022/07/27 05:51:05;;;;;;;2.80;0.60;;;;;;;15.10;84.09;102101.78;5072870;28;20036;-40
2022/07/27 05:53:34;;;;;;;2.30;0.60;;;;;;;15.16;83.43;102109.03;5073013;28;20049;-38
2022/07/27 05:56:03;;;;;;;2.88;0.52;;;;;;;15.22;83.20;102107.81;5073271;28;20049;-38
2022/07/27 05:58:31;;;;;;;2.13;0.60;;;;;;;15.27;82.96;102099.31;5072726;28;20052;-40
2022/07/27 06:01:00;;;;;;;5.47;0.80;;;;;;;15.32;82.76;102102.06;5073330;28;20468;-34
2022/07/27 06:03:28;;;;;;;3.85;0.70;;;;;;;15.37;82.93;102106.81;5072167;28;20055;-41
2022/07/27 06:07:57;;;;;;;2.08;0.60;;;;;;;15.43;83.00;102112.03;5072500;28;20086;-37
2022/07/27 06:08:43;;;;;;;2.50;0.52;;;;;;;15.47;82.60;102113.13;5073067;28;20044;-43
2022/07/27 06:11:13;;;;;;;2.72;1.00;;;;;;;15.56;82.40;102109.66;5072688;28;20140;-37
2022/07/27 06:13:41;;;;;;;1.85;0.43;;;;;;;15.62;81.93;102111.25;5072890;28;20087;-31
2022/07/27 06:16:09;;;;;;;1.67;0.57;;;;;;;15.68;81.42;102116.50;5072953;28;20044;-33
2022/07/27 06:18:38;;;;;;;2.00;0.65;;;;;;;15.74;80.99;102120.09;5071878;28;20102;-32
2022/07/27 06:21:05;;;;;;;2.50;0.60;;;;;;;15.80;80.89;102113.25;5072977;28;20409;-30
2022/07/27 06:23:33;;;;;;;4.00;0.60;;;;;;;15.89;80.77;102114.25;5072892;28;20056;-32
2022/07/27 06:26:01;;;;;;;3.58;0.75;;;;;;;16.00;80.85;102115.75;5072266;28;20417;-31
2022/07/27 06:28:31;;;;;;;3.17;0.80;;;;;;;16.13;81.01;102120.63;5071576;28;20094;-31
2022/07/27 06:30:59;;;;;;;6.70;0.80;;;;;;;16.24;81.50;102126.06;5072812;28;20040;-31
2022/07/27 06:33:27;;;;;;;5.15;0.80;;;;;;;16.32;82.81;102133.84;5071726;28;20048;-30
2022/07/27 06:35:58;;;;;;;3.53;0.73;;;;;;;16.37;84.09;102128.13;5072888;28;20087;-32
2022/07/27 06:38:26;;;;;;;3.28;0.80;;;;;;;16.36;84.62;102138.56;5072746;28;20076;-31
2022/07/27 06:40:55;;;;;;;2.17;0.50;;;;;;;16.33;85.12;102141.16;5071732;28;20091;-31
2022/07/27 06:43:25;;;;;;;1.70;0.55;;;;;;;16.30;85.16;102144.56;5072435;28;20488;-31
2022/07/27 06:45:54;;;;;;;2.40;0.60;;;;;;;16.30;84.92;102136.13;5072163;28;20048;-31
2022/07/27 06:48:22;;;;;;;2.78;0.65;;;;;;;16.32;84.73;102140.31;5072383;28;20416;-31
2022/07/27 06:50:51;;;;;;;1.02;0.40;;;;;;;16.38;84.42;102135.44;5072440;28;20127;-32
2022/07/27 06:53:19;;;;;;;1.13;0.40;;;;;;;16.44;83.90;102143.47;5071313;28;20434;-31
2022/07/27 06:55:48;;;;;;;1.48;0.50;;;;;;;16.52;83.47;102139.97;5061093;28;20476;-33
2022/07/27 06:58:17;;;;;;;2.10;0.50;;;;;;;16.63;82.99;102148.22;5072106;28;20132;-34
2022/07/27 07:00:44;;;;;;;1.48;0.50;;;;;;;16.71;82.46;102151.22;5071228;28;20135;-39
2022/07/27 07:03:14;;;;;;;2.47;0.75;;;;;;;16.79;81.71;102141.19;5072182;28;20074;-41
2022/07/27 07:05:44;;;;;;;1.83;0.50;;;;;;;16.88;81.00;102140.19;5067686;28;20045;-32
2022/07/27 07:08:13;;;;;;;1.63;0.50;;;;;;;16.96;80.49;102138.66;5071547;28;20068;-33
2022/07/27 07:10:44;;;;;;;1.27;0.43;;;;;;;17.06;80.04;102149.72;5071769;28;20048;-36
2022/07/27 07:13:12;;;;;;;1.23;0.50;;;;;;;17.17;79.48;102153.19;5072035;28;20139;-36
2022/07/27 07:15:41;;;;;;;1.05;0.40;;;;;;;17.28;78.79;102151.81;5071124;28;20041;-32
2022/07/27 07:18:10;;;;;;;2.03;0.40;;;;;;;17.42;78.72;102158.28;5072172;28;20143;-32
2022/07/27 07:20:40;;;;;;;1.27;0.50;;;;;;;17.59;78.36;102160.47;5071809;28;20052;-41
2022/07/27 07:23:08;;;;;;;2.35;0.70;;;;;;;17.76;78.17;102168.34;5071029;28;20056;-39
2022/07/27 07:25:36;;;;;;;3.08;0.40;;;;;;;17.94;78.04;102161.72;5071356;28;20056;-30
2022/07/27 07:28:05;;;;;;;2.47;0.60;;;;;;;18.11;77.43;102166.69;5071641;28;20063;-31
2022/07/27 07:30:34;;;;;;;1.52;0.43;;;;;;;18.26;76.92;102160.69;5071624;28;20048;-31
2022/07/27 07:33:02;;;;;;;2.95;0.73;;;;;;;18.46;76.84;102160.16;5071766;28;20045;-31
2022/07/27 07:35:30;;;;;;;4.85;0.60;;;;;;;18.69;76.47;102157.38;5070797;28;20045;-32
2022/07/27 07:37:59;;;;;;;2.28;0.55;;;;;;;18.93;75.77;102163.53;5071574;28;20106;-35
2022/07/27 07:40:27;;;;;;;2.28;0.50;;;;;;;19.16;75.23;102158.66;5071620;28;20051;-35
2022/07/27 07:43:13;;;;;;;1.33;0.50;;;;;;;19.47;74.62;102159.44;5070951;28;20497;-31
2022/07/27 07:45:42;;;;;;;3.40;0.63;;;;;;;19.82;74.30;102168.03;5071722;28;20048;-32
2022/07/27 07:48:18;;;;;;;2.45;0.50;;;;;;;20.47;73.83;102170.78;5071521;28;20559;-33
2022/07/27 07:50:46;;;;;;;2.80;0.65;;;;;;;20.96;69.88;102166.56;5070771;28;20067;-31
2022/07/27 07:53:21;;;;;;;2.42;0.45;;;;;;;21.23;67.93;102170.16;5071817;28;20095;-38
2022/07/27 07:55:50;;;;;;;2.70;0.65;;;;;;;21.34;67.07;102179.97;5071474;28;20044;-32
2022/07/27 07:58:18;;;;;;;2.53;0.52;;;;;;;21.44;66.66;102178.75;5069768;28;20056;-32
2022/07/27 08:00:46;;;;;;;2.25;0.60;;;;;;;21.54;65.98;102172.69;5071321;28;20136;-43
2022/07/27 08:03:14;;;;;;;3.38;0.55;;;;;;;21.82;66.18;102179.53;5071420;28;20058;-33
2022/07/27 08:05:43;;;;;;;2.30;0.65;;;;;;;22.10;65.22;102168.53;5071255;28;20045;-32
2022/07/27 08:08:11;;;;;;;1.92;0.50;;;;;;;22.57;64.41;102166.28;5070228;28;20063;-31
2022/07/27 08:10:40;;;;;;;2.90;0.60;;;;;;;23.18;60.62;102171.38;5069178;28;20159;-37
2022/07/27 08:13:08;;;;;;;4.75;0.60;;;;;;;23.43;56.95;102170.19;5071456;28;20059;-42
2022/07/27 08:15:36;;;;;;;2.20;0.60;;;;;;;23.35;55.82;102168.28;5072229;28;20052;-31
2022/07/27 08:18:05;;;;;;;5.07;0.50;;;;;;;23.16;55.49;102174.56;5074557;28;20044;-32
2022/07/27 08:20:33;;;;;;;1.70;0.70;;;;;;;22.90;55.70;102174.00;5075505;28;20083;-32
2022/07/27 08:23:01;;;;;;;2.00;0.60;;;;;;;22.70;56.37;102178.53;5075043;28;20530;-32
2022/07/27 08:25:29;;;;;;;3.70;0.70;;;;;;;22.56;55.98;102170.31;5074655;28;20127;-32
2022/07/27 08:27:58;;;;;;;3.67;0.60;;;;;;;22.38;55.53;102176.50;5074958;28;20140;-37
2022/07/27 08:30:28;;;;;;;4.55;0.70;;;;;;;22.21;56.04;102181.13;5075339;28;20058;-36
2022/07/27 08:33:00;;;;;;;2.00;0.73;;;;;;;22.12;55.86;102185.22;5074349;28;20064;-28
2022/07/27 08:35:29;;;;;;;5.00;0.70;;;;;;;21.94;55.42;102182.47;5055032;28;20045;-31
2022/07/27 08:37:58;;;;;;;2.60;0.50;;;;;;;21.71;55.95;102178.28;5069574;28;20098;-38
2022/07/27 08:40:26;;;;;;;3.63;0.50;;;;;;;21.59;57.12;102176.16;5073973;28;20056;-34
2022/07/27 08:43:10;;;;;;;2.25;0.60;;;;;;;21.79;56.94;102180.22;5074478;28;20427;-33
2022/07/27 08:45:40;;;;;;;2.97;0.50;;;;;;;22.27;55.96;102176.06;5073776;28;20155;-32
2022/07/27 08:48:12;;;;;;;2.60;0.55;;;;;;;22.78;54.37;102177.63;5074693;28;20051;-35
2022/07/27 08:50:41;;;;;;;2.90;0.80;;;;;;;23.10;53.46;102177.97;5071466;28;20060;-34
2022/07/27 08:53:12;;;;;;;3.65;0.82;;;;;;;23.33;52.46;102179.22;5072949;28;20048;-31
2022/07/27 08:55:42;;;;;;;1.20;0.30;;;;;;;23.32;51.97;102180.41;5074874;28;20474;-33
2022/07/27 08:58:13;;;;;;;2.40;0.60;;;;;;;23.22;51.76;102178.00;5074551;28;20148;-39
2022/07/27 09:00:43;;;;;;;4.28;0.57;;;;;;;23.06;51.94;102188.41;5073863;28;20159;-31
2022/07/27 09:03:11;;;;;;;4.45;0.70;;;;;;;22.85;52.11;102191.31;5074051;28;20486;-31
2022/07/27 09:05:51;;;;;;;2.45;0.50;;;;;;;22.66;52.37;102180.41;5074590;28;20501;-33
2022/07/27 09:08:22;;;;;;;4.20;0.98;;;;;;;22.54;52.71;102177.53;5073772;28;20154;-31
2022/07/27 09:10:53;;;;;;;3.55;0.70;;;;;;;22.53;52.92;102178.72;5074411;28;20056;-32
2022/07/27 09:13:25;;;;;;;3.63;0.68;;;;;;;22.65;53.26;102171.03;5074285;28;20075;-37
2022/07/27 09:15:55;;;;;;;2.47;0.50;;;;;;;22.93;52.98;102177.00;5073476;28;20098;-33
2022/07/27 09:18:43;;;;;;;3.10;0.63;;;;;;;23.56;52.35;102182.47;5074337;28;20048;-36
2022/07/27 09:21:14;;;;;;;2.00;0.60;;;;;;;24.38;48.25;102183.91;5073602;28;20063;-37
2022/07/27 09:23:44;;;;;;;2.20;0.70;;;;;;;24.73;45.93;102183.31;5074098;28;20044;-36
2022/07/27 09:26:17;;;;;;;3.63;0.55;;;;;;;24.94;45.06;102183.94;5074283;28;20072;-32
2022/07/27 09:29:02;;;;;;;3.10;0.40;;;;;;;25.55;44.28;102197.00;5072866;28;20107;-33
2022/07/27 09:31:31;;;;;;;1.05;0.40;;;;;;;26.18;42.70;102194.88;5074233;28;20044;-31
2022/07/27 09:34:01;;;;;;;2.33;0.50;;;;;;;26.72;41.03;102194.06;5073784;28;20048;-38
2022/07/27 09:36:30;;;;;;;1.45;0.40;;;;;;;26.67;40.24;102197.22;5073224;28;20055;-38
2022/07/27 09:39:01;;;;;;;2.97;0.60;;;;;;;26.59;40.75;102203.97;5073561;28;20049;-34
2022/07/27 09:41:40;;;;;;;1.73;0.60;;;;;;;26.83;40.11;102191.38;5074019;28;20080;-33
2022/07/27 09:44:10;;;;;;;2.28;0.57;;;;;;;27.10;40.04;102188.31;5073211;28;20044;-35
2022/07/27 09:46:58;;;;;;;2.08;0.52;;;;;;;27.01;39.46;102186.88;5073703;28;20044;-35
2022/07/27 09:49:29;;;;;;;2.05;0.60;;;;;;;26.94;39.95;102186.72;5072771;28;20114;-32
2022/07/27 09:51:58;;;;;;;2.78;0.55;;;;;;;27.12;39.36;102187.09;5073681;28;20444;-31
2022/07/27 09:54:42;;;;;;;1.98;0.50;;;;;;;27.10;39.70;102182.56;5073422;28;20055;-36
2022/07/27 09:57:10;;;;;;;2.50;0.60;;;;;;;27.37;39.33;102185.53;5072902;28;20054;-33
2022/07/27 09:59:39;;;;;;;1.90;0.40;;;;;;;27.74;38.61;102180.88;5073312;28;20107;-33
2022/07/27 10:02:07;;;;;;;2.72;0.60;;;;;;;28.21;37.67;102178.69;5073672;28;20071;-34
2022/07/27 10:04:35;;;;;;;1.95;0.40;;;;;;;28.72;36.80;102179.81;5072755;28;20040;-39
2022/07/27 10:07:03;;;;;;;1.55;0.40;;;;;;;29.03;36.18;102192.09;5073374;28;20060;-33
2022/07/27 10:09:38;;;;;;;1.63;0.40;;;;;;;29.24;35.43;102191.47;5073279;28;20139;-39
2022/07/27 10:12:06;;;;;;;1.92;0.60;;;;;;;29.39;35.28;102193.25;5072329;28;20037;-39
2022/07/27 10:14:35;;;;;;;2.47;0.50;;;;;;;29.57;34.57;102188.56;5073374;28;20676;-37
2022/07/27 10:17:05;;;;;;;3.25;0.60;;;;;;;29.71;33.82;102182.91;5072366;28;20048;-38
2022/07/27 10:19:41;;;;;;;2.08;0.40;;;;;;;29.95;33.69;102184.31;5073275;28;20142;-33
2022/07/27 10:22:08;;;;;;;2.80;0.45;;;;;;;30.19;33.15;102185.72;5072395;28;20140;-37
2022/07/27 10:24:36;;;;;;;1.98;0.40;;;;;;;30.32;32.66;102187.06;5072191;28;20131;-40
2022/07/27 10:27:20;;;;;;;1.42;0.45;;;;;;;30.46;31.45;102184.22;5072868;28;20052;-37
2022/07/27 10:29:50;;;;;;;1.65;0.40;;;;;;;30.62;31.48;102188.84;5073124;28;20057;-41
2022/07/27 10:32:29;;;;;;;1.85;0.40;;;;;;;30.88;31.56;102182.78;5070507;28;20640;-36
2022/07/27 10:34:58;;;;;;;1.67;0.30;;;;;;;31.11;31.19;102185.34;5072891;28;20495;-33
2022/07/27 10:37:28;;;;;;;2.38;0.50;;;;;;;31.27;30.91;102193.59;5072389;28;20049;-41
2022/07/27 10:42:45;;;;;;;1.52;0.40;;;;;;;31.44;30.97;102182.06;5072479;28;20151;-37
2022/07/27 10:45:20;;;;;;;2.03;0.40;;;;;;;31.49;30.33;102178.78;5071875;28;20106;-33
2022/07/27 10:47:52;;;;;;;2.58;0.40;;;;;;;31.51;29.89;102193.63;5072398;28;20138;-36
2022/07/27 10:50:32;;;;;;;;;;;;;;;31.39;28.73;102184.53;5072922;28;20132;-44
2022/07/27 10:53:07;;;;;;;2.53;0.52;;;;;;;31.38;30.69;102197.31;5071627;28;19927;-42
2022/07/27 10:55:45;;;;;;;1.83;0.43;;;;;;;31.44;29.34;102181.25;5072683;28;20117;-38
2022/07/27 10:58:44;;;;;;;1.42;0.35;;;;;;;31.38;29.29;102182.88;5072434;28;20059;-39
2022/07/27 11:01:12;;;;;;;1.23;0.30;;;;;;;31.37;30.52;102172.59;5066000;28;20532;-38
2022/07/27 11:03:51;;;;;;;2.03;0.55;;;;;;;31.35;30.61;102177.97;5072339;28;20041;-38
2022/07/27 11:06:25;;;;;;;3.83;0.88;;;;;;;31.39;30.59;102179.59;5071580;28;20040;-36
2022/07/27 11:09:02;;;;;;;1.80;0.60;;;;;;;31.50;30.13;102185.38;5070724;28;20127;-39
2022/07/27 11:11:51;;;;;;;2.47;0.60;;;;;;;31.67;30.04;102184.59;5072145;28;20052;-36
2022/07/27 11:14:19;;;;;;;2.28;0.52;;;;;;;31.89;29.81;102179.63;5071415;28;20522;-42
2022/07/27 11:16:58;;;;;;;1.90;0.32;;;;;;;31.92;29.89;102180.84;5072022;28;20056;-40
2022/07/27 11:19:53;;;;;;;1.67;0.40;;;;;;;31.92;29.16;102180.84;5062741;28;20413;-40
2022/07/27 11:22:32;;;;;;;2.75;0.40;;;;;;;31.77;29.00;102177.16;5070028;28;20406;-38
2022/07/27 11:25:20;;;;;;;1.25;0.30;;;;;;;31.56;30.50;102183.75;5072024;28;20052;-37
2022/07/27 11:27:48;;;;;;;2.33;0.85;;;;;;;31.25;31.08;102190.31;5071554;28;20444;-35
2022/07/27 11:30:23;;;;;;;1.83;0.50;;;;;;;31.12;30.92;102184.94;5071914;28;20131;-36
2022/07/27 11:32:52;;;;;;;1.88;0.40;;;;;;;31.17;31.33;102189.47;5071663;28;20052;-35
2022/07/27 11:35:21;;;;;;;3.17;0.40;;;;;;;31.13;30.83;102182.88;5070901;28;20049;-36
2022/07/27 11:38:00;;;;;;;3.30;0.50;;;;;;;30.81;30.71;102194.28;5071579;28;20052;-33
2022/07/27 11:40:28;;;;;;;1.95;0.50;;;;;;;30.23;32.10;102192.34;5062443;28;20501;-35